TAF KCOS
KCOS 270531Z 2706/2806 01006KT P6SM SCT160 SCT250 FM271200 34010KT P6SM FEW250 FM271700 03012KT P6SM SKC FM272000 12009KT P6SM FEW200=
METAR KCOS
WC KCOS
WS KCOS
WV KCOS